sensor_id;sensor_type;location;lat;lon;timestamp;temperature;humidity
69328;DHT22;56472;52.114;5.492;2023-04-01T00:01:42;13.30;90.30
69328;DHT22;56472;52.114;5.492;2023-04-01T00:04:09;13.30;90.30
69328;DHT22;56472;52.114;5.492;2023-04-01T00:06:36;13.30;90.30
69328;DHT22;56472;52.114;5.492;2023-04-01T00:09:03;13.30;90.30
69328;DHT22;56472;52.114;5.492;2023-04-01T00:11:32;13.30;90.30
69328;DHT22;56472;52.114;5.492;2023-04-01T00:13:59;13.30;90.30
69328;DHT22;56472;52.114;5.492;2023-04-01T00:16:26;13.30;90.30
69328;DHT22;56472;52.114;5.492;2023-04-01T00:18:53;13.30;90.30
69328;DHT22;56472;52.114;5.492;2023-04-01T00:21:20;13.30;90.30
69328;DHT22;56472;52.114;5.492;2023-04-01T00:23:50;13.30;90.30
69328;DHT22;56472;52.114;5.492;2023-04-01T00:26:17;13.30;90.30
69328;DHT22;56472;52.114;5.492;2023-04-01T00:28:47;13.30;90.30
69328;DHT22;56472;52.114;5.492;2023-04-01T00:31:14;13.40;90.30
69328;DHT22;56472;52.114;5.492;2023-04-01T00:33:41;13.30;90.30
69328;DHT22;56472;52.114;5.492;2023-04-01T00:36:14;13.30;90.20
69328;DHT22;56472;52.114;5.492;2023-04-01T00:38:42;13.40;90.20
69328;DHT22;56472;52.114;5.492;2023-04-01T00:41:11;13.30;90.20
69328;DHT22;56472;52.114;5.492;2023-04-01T00:43:45;13.30;90.30
69328;DHT22;56472;52.114;5.492;2023-04-01T00:46:13;13.30;90.30
69328;DHT22;56472;52.114;5.492;2023-04-01T00:48:51;13.30;90.30
69328;DHT22;56472;52.114;5.492;2023-04-01T00:51:22;13.30;90.30
69328;DHT22;56472;52.114;5.492;2023-04-01T00:53:51;13.20;90.20
69328;DHT22;56472;52.114;5.492;2023-04-01T00:56:34;13.20;90.30
69328;DHT22;56472;52.114;5.492;2023-04-01T00:59:13;13.20;90.40
69328;DHT22;56472;52.114;5.492;2023-04-01T01:01:41;13.20;90.70
69328;DHT22;56472;52.114;5.492;2023-04-01T01:07:00;13.10;90.40
69328;DHT22;56472;52.114;5.492;2023-04-01T01:36:41;13.00;90.40
69328;DHT22;56472;52.114;5.492;2023-04-01T01:39:09;12.90;90.40
69328;DHT22;56472;52.114;5.492;2023-04-01T01:41:38;13.00;90.50
69328;DHT22;56472;52.114;5.492;2023-04-01T01:44:08;13.00;90.40
69328;DHT22;56472;52.114;5.492;2023-04-01T01:46:38;12.90;90.40
69328;DHT22;56472;52.114;5.492;2023-04-01T01:49:07;12.90;90.40
69328;DHT22;56472;52.114;5.492;2023-04-01T01:51:37;12.90;90.40
69328;DHT22;56472;52.114;5.492;2023-04-01T01:54:06;12.90;90.40
69328;DHT22;56472;52.114;5.492;2023-04-01T01:56:34;12.90;90.40
69328;DHT22;56472;52.114;5.492;2023-04-01T01:59:05;12.90;90.50
69328;DHT22;56472;52.114;5.492;2023-04-01T02:01:35;12.90;90.40
69328;DHT22;56472;52.114;5.492;2023-04-01T02:04:10;12.80;90.30
69328;DHT22;56472;52.114;5.492;2023-04-01T02:06:42;12.80;90.20
69328;DHT22;56472;52.114;5.492;2023-04-01T02:09:11;12.80;90.30
69328;DHT22;56472;52.114;5.492;2023-04-01T02:11:43;12.70;90.40
69328;DHT22;56472;52.114;5.492;2023-04-01T02:14:24;12.70;90.50
69328;DHT22;56472;52.114;5.492;2023-04-01T02:17:05;12.60;90.50
69328;DHT22;56472;52.114;5.492;2023-04-01T02:19:38;12.60;90.60
69328;DHT22;56472;52.114;5.492;2023-04-01T02:22:10;12.60;90.60
69328;DHT22;56472;52.114;5.492;2023-04-01T02:24:39;12.70;91.00
69328;DHT22;56472;52.114;5.492;2023-04-01T02:27:07;12.70;90.60
69328;DHT22;56472;52.114;5.492;2023-04-01T02:29:35;12.70;90.60
69328;DHT22;56472;52.114;5.492;2023-04-01T02:32:07;12.70;90.50
69328;DHT22;56472;52.114;5.492;2023-04-01T02:34:34;12.60;90.40
69328;DHT22;56472;52.114;5.492;2023-04-01T02:37:01;12.60;90.50
69328;DHT22;56472;52.114;5.492;2023-04-01T02:39:28;12.50;90.50
69328;DHT22;56472;52.114;5.492;2023-04-01T02:41:55;12.50;90.60
69328;DHT22;56472;52.114;5.492;2023-04-01T02:44:22;12.50;90.60
69328;DHT22;56472;52.114;5.492;2023-04-01T02:46:49;12.50;90.60
69328;DHT22;56472;52.114;5.492;2023-04-01T02:49:16;12.40;90.70
69328;DHT22;56472;52.114;5.492;2023-04-01T02:51:44;12.50;90.70
69328;DHT22;56472;52.114;5.492;2023-04-01T02:54:11;12.40;90.70
69328;DHT22;56472;52.114;5.492;2023-04-01T02:56:38;12.40;90.70
69328;DHT22;56472;52.114;5.492;2023-04-01T02:59:06;12.40;90.80
69328;DHT22;56472;52.114;5.492;2023-04-01T03:01:32;12.30;90.90
69328;DHT22;56472;52.114;5.492;2023-04-01T03:04:00;12.30;90.90
69328;DHT22;56472;52.114;5.492;2023-04-01T03:06:27;12.30;90.90
69328;DHT22;56472;52.114;5.492;2023-04-01T03:08:53;12.30;91.00
69328;DHT22;56472;52.114;5.492;2023-04-01T03:11:21;12.20;91.00
69328;DHT22;56472;52.114;5.492;2023-04-01T03:13:48;12.20;91.00
69328;DHT22;56472;52.114;5.492;2023-04-01T03:16:15;12.20;91.10
69328;DHT22;56472;52.114;5.492;2023-04-01T03:18:42;12.20;91.10
69328;DHT22;56472;52.114;5.492;2023-04-01T03:21:21;12.20;91.10
69328;DHT22;56472;52.114;5.492;2023-04-01T03:23:49;12.20;91.10
69328;DHT22;56472;52.114;5.492;2023-04-01T03:26:16;12.20;91.10
69328;DHT22;56472;52.114;5.492;2023-04-01T03:28:44;12.20;91.10
69328;DHT22;56472;52.114;5.492;2023-04-01T03:31:11;12.20;91.20
69328;DHT22;56472;52.114;5.492;2023-04-01T03:33:45;12.20;91.20
69328;DHT22;56472;52.114;5.492;2023-04-01T03:36:12;12.20;91.20
69328;DHT22;56472;52.114;5.492;2023-04-01T03:38:43;12.20;91.20
69328;DHT22;56472;52.114;5.492;2023-04-01T03:41:16;12.20;91.20
69328;DHT22;56472;52.114;5.492;2023-04-01T03:43:44;12.20;91.20
69328;DHT22;56472;52.114;5.492;2023-04-01T03:46:12;12.20;91.20
69328;DHT22;56472;52.114;5.492;2023-04-01T03:48:43;12.20;91.30
69328;DHT22;56472;52.114;5.492;2023-04-01T03:51:10;12.20;91.30
69328;DHT22;56472;52.114;5.492;2023-04-01T03:53:37;12.20;91.30
69328;DHT22;56472;52.114;5.492;2023-04-01T03:56:06;12.20;91.40
69328;DHT22;56472;52.114;5.492;2023-04-01T03:58:35;12.10;91.40
69328;DHT22;56472;52.114;5.492;2023-04-01T04:01:22;12.20;91.50
69328;DHT22;56472;52.114;5.492;2023-04-01T04:03:52;12.10;91.50
69328;DHT22;56472;52.114;5.492;2023-04-01T04:06:21;12.10;91.60
69328;DHT22;56472;52.114;5.492;2023-04-01T04:08:49;12.10;91.60
69328;DHT22;56472;52.114;5.492;2023-04-01T04:11:18;12.10;91.70
69328;DHT22;56472;52.114;5.492;2023-04-01T04:13:45;12.10;91.70
69328;DHT22;56472;52.114;5.492;2023-04-01T04:16:12;12.10;91.80
69328;DHT22;56472;52.114;5.492;2023-04-01T04:18:43;12.10;91.80
69328;DHT22;56472;52.114;5.492;2023-04-01T04:21:13;12.10;91.90
69328;DHT22;56472;52.114;5.492;2023-04-01T04:23:41;12.10;92.00
69328;DHT22;56472;52.114;5.492;2023-04-01T04:26:10;12.10;92.00
69328;DHT22;56472;52.114;5.492;2023-04-01T04:28:38;12.10;92.10
69328;DHT22;56472;52.114;5.492;2023-04-01T04:31:05;12.10;92.00
69328;DHT22;56472;52.114;5.492;2023-04-01T04:33:34;12.10;92.00
69328;DHT22;56472;52.114;5.492;2023-04-01T04:36:03;12.20;92.00
69328;DHT22;56472;52.114;5.492;2023-04-01T04:38:31;12.20;92.10
69328;DHT22;56472;52.114;5.492;2023-04-01T04:40:58;12.20;92.00
69328;DHT22;56472;52.114;5.492;2023-04-01T04:43:25;12.20;92.00
69328;DHT22;56472;52.114;5.492;2023-04-01T04:45:53;12.30;92.00
69328;DHT22;56472;52.114;5.492;2023-04-01T04:48:20;12.30;92.00
69328;DHT22;56472;52.114;5.492;2023-04-01T04:50:49;12.30;91.90
69328;DHT22;56472;52.114;5.492;2023-04-01T04:53:18;12.40;91.90
69328;DHT22;56472;52.114;5.492;2023-04-01T04:55:47;12.40;91.80
69328;DHT22;56472;52.114;5.492;2023-04-01T04:58:32;12.40;91.80
69328;DHT22;56472;52.114;5.492;2023-04-01T05:01:05;12.40;91.80
69328;DHT22;56472;52.114;5.492;2023-04-01T05:03:32;12.40;92.20
69328;DHT22;56472;52.114;5.492;2023-04-01T05:05:59;12.40;91.80
69328;DHT22;56472;52.114;5.492;2023-04-01T05:08:26;12.40;91.80
69328;DHT22;56472;52.114;5.492;2023-04-01T05:10:53;12.40;91.90
69328;DHT22;56472;52.114;5.492;2023-04-01T05:13:21;12.50;91.90
69328;DHT22;56472;52.114;5.492;2023-04-01T05:15:48;12.50;91.90
69328;DHT22;56472;52.114;5.492;2023-04-01T05:18:15;12.40;91.90
69328;DHT22;56472;52.114;5.492;2023-04-01T05:20:50;12.40;92.00
69328;DHT22;56472;52.114;5.492;2023-04-01T05:23:18;12.50;92.10
69328;DHT22;56472;52.114;5.492;2023-04-01T05:25:48;12.50;92.10
69328;DHT22;56472;52.114;5.492;2023-04-01T05:28:16;12.50;92.20
69328;DHT22;56472;52.114;5.492;2023-04-01T05:30:45;12.50;92.30
69328;DHT22;56472;52.114;5.492;2023-04-01T05:33:28;12.50;92.30
69328;DHT22;56472;52.114;5.492;2023-04-01T05:35:56;12.50;92.30
69328;DHT22;56472;52.114;5.492;2023-04-01T05:38:31;12.50;92.40
69328;DHT22;56472;52.114;5.492;2023-04-01T05:41:00;12.50;92.50
69328;DHT22;56472;52.114;5.492;2023-04-01T05:43:28;12.50;92.50
69328;DHT22;56472;52.114;5.492;2023-04-01T05:46:03;12.40;92.70
69328;DHT22;56472;52.114;5.492;2023-04-01T05:48:36;12.50;92.70
69328;DHT22;56472;52.114;5.492;2023-04-01T05:51:04;12.40;92.60
69328;DHT22;56472;52.114;5.492;2023-04-01T05:53:30;12.40;92.70
69328;DHT22;56472;52.114;5.492;2023-04-01T05:56:02;12.40;92.70
69328;DHT22;56472;52.114;5.492;2023-04-01T05:58:33;12.40;92.70
69328;DHT22;56472;52.114;5.492;2023-04-01T06:01:05;12.40;92.70
69328;DHT22;56472;52.114;5.492;2023-04-01T06:03:38;12.40;92.70
69328;DHT22;56472;52.114;5.492;2023-04-01T06:06:15;12.40;92.90
69328;DHT22;56472;52.114;5.492;2023-04-01T06:08:43;12.40;92.80
69328;DHT22;56472;52.114;5.492;2023-04-01T06:30:35;12.30;93.30
69328;DHT22;56472;52.114;5.492;2023-04-01T06:36:11;12.30;93.30
69328;DHT22;56472;52.114;5.492;2023-04-01T06:42:29;12.30;93.30
69328;DHT22;56472;52.114;5.492;2023-04-01T06:54:36;12.30;93.40
69328;DHT22;56472;52.114;5.492;2023-04-01T06:57:32;12.30;93.50
69328;DHT22;56472;52.114;5.492;2023-04-01T07:00:05;12.30;93.60
69328;DHT22;56472;52.114;5.492;2023-04-01T07:03:04;12.30;93.50
69328;DHT22;56472;52.114;5.492;2023-04-01T07:05:33;12.30;93.70
69328;DHT22;56472;52.114;5.492;2023-04-01T07:08:04;12.30;93.60
69328;DHT22;56472;52.114;5.492;2023-04-01T07:13:52;12.40;93.60
69328;DHT22;56472;52.114;5.492;2023-04-01T07:25:46;12.50;93.30
69328;DHT22;56472;52.114;5.492;2023-04-01T07:28:34;12.50;93.20
69328;DHT22;56472;52.114;5.492;2023-04-01T07:34:42;12.50;93.20
69328;DHT22;56472;52.114;5.492;2023-04-01T07:37:30;12.60;93.20
69328;DHT22;56472;52.114;5.492;2023-04-01T07:51:26;12.70;92.90
69328;DHT22;56472;52.114;5.492;2023-04-01T08:02:18;12.80;92.70
69328;DHT22;56472;52.114;5.492;2023-04-01T08:07:20;12.80;92.60
69328;DHT22;56472;52.114;5.492;2023-04-01T08:16:38;12.80;92.70
69328;DHT22;56472;52.114;5.492;2023-04-01T08:19:31;12.80;92.80
69328;DHT22;56472;52.114;5.492;2023-04-01T08:22:12;12.80;92.80
69328;DHT22;56472;52.114;5.492;2023-04-01T08:24:46;12.80;92.80
69328;DHT22;56472;52.114;5.492;2023-04-01T08:30:31;12.80;92.80
69328;DHT22;56472;52.114;5.492;2023-04-01T08:33:09;12.90;93.10
69328;DHT22;56472;52.114;5.492;2023-04-01T08:35:47;12.90;92.50
69328;DHT22;56472;52.114;5.492;2023-04-01T08:50:06;12.90;92.50
69328;DHT22;56472;52.114;5.492;2023-04-01T09:27:05;13.20;92.30
69328;DHT22;56472;52.114;5.492;2023-04-01T09:43:28;13.30;92.10
69328;DHT22;56472;52.114;5.492;2023-04-01T09:49:09;13.40;92.40
69328;DHT22;56472;52.114;5.492;2023-04-01T09:52:05;13.50;92.40
69328;DHT22;56472;52.114;5.492;2023-04-01T10:09:14;14.00;92.10
69328;DHT22;56472;52.114;5.492;2023-04-01T10:20:41;14.20;91.50
69328;DHT22;56472;52.114;5.492;2023-04-01T10:23:18;14.30;91.50
69328;DHT22;56472;52.114;5.492;2023-04-01T10:44:04;14.50;89.60
69328;DHT22;56472;52.114;5.492;2023-04-01T10:58:51;14.60;89.90
69328;DHT22;56472;52.114;5.492;2023-04-01T11:08:23;14.70;90.10
69328;DHT22;56472;52.114;5.492;2023-04-01T11:24:39;14.60;88.40
69328;DHT22;56472;52.114;5.492;2023-04-01T11:27:40;14.60;88.40
69328;DHT22;56472;52.114;5.492;2023-04-01T11:31:29;14.60;88.70
69328;DHT22;56472;52.114;5.492;2023-04-01T11:42:31;14.60;88.60
69328;DHT22;56472;52.114;5.492;2023-04-01T11:45:30;14.70;88.50
69328;DHT22;56472;52.114;5.492;2023-04-01T11:54:40;14.80;88.50
69328;DHT22;56472;52.114;5.492;2023-04-01T12:05:34;15.00;87.20
69328;DHT22;56472;52.114;5.492;2023-04-01T12:08:25;15.00;86.50
69328;DHT22;56472;52.114;5.492;2023-04-01T12:19:23;15.20;87.60
69328;DHT22;56472;52.114;5.492;2023-04-01T12:55:49;15.80;88.10
69328;DHT22;56472;52.114;5.492;2023-04-01T13:01:25;15.90;84.70
69328;DHT22;56472;52.114;5.492;2023-04-01T13:15:16;15.50;85.30
69328;DHT22;56472;52.114;5.492;2023-04-01T13:28:30;15.30;86.10
69328;DHT22;56472;52.114;5.492;2023-04-01T13:36:56;15.20;86.80
69328;DHT22;56472;52.114;5.492;2023-04-01T13:42:42;14.90;87.20
69328;DHT22;56472;52.114;5.492;2023-04-01T13:45:23;14.90;87.50
69328;DHT22;56472;52.114;5.492;2023-04-01T13:59:39;14.70;88.40
69328;DHT22;56472;52.114;5.492;2023-04-01T14:10:36;14.50;88.70
69328;DHT22;56472;52.114;5.492;2023-04-01T14:13:12;14.50;88.90
69328;DHT22;56472;52.114;5.492;2023-04-01T14:15:54;14.50;89.10
69328;DHT22;56472;52.114;5.492;2023-04-01T14:21:35;14.50;89.70
69328;DHT22;56472;52.114;5.492;2023-04-01T14:28:16;14.50;89.60
69328;DHT22;56472;52.114;5.492;2023-04-01T14:30:35;14.60;89.70
69328;DHT22;56472;52.114;5.492;2023-04-01T14:41:21;14.60;89.40
69328;DHT22;56472;52.114;5.492;2023-04-01T14:49:44;14.60;89.30
69328;DHT22;56472;52.114;5.492;2023-04-01T14:52:28;14.60;89.00
69328;DHT22;56472;52.114;5.492;2023-04-01T14:54:58;14.60;89.20
69328;DHT22;56472;52.114;5.492;2023-04-01T14:57:30;14.60;89.10
69328;DHT22;56472;52.114;5.492;2023-04-01T15:00:18;14.60;89.20
69328;DHT22;56472;52.114;5.492;2023-04-01T15:05:29;14.70;89.30
69328;DHT22;56472;52.114;5.492;2023-04-01T15:26:31;14.90;89.80
69328;DHT22;56472;52.114;5.492;2023-04-01T15:29:23;15.00;89.50
69328;DHT22;56472;52.114;5.492;2023-04-01T15:32:37;15.00;89.60
69328;DHT22;56472;52.114;5.492;2023-04-01T15:34:50;15.10;89.60
69328;DHT22;56472;52.114;5.492;2023-04-01T15:50:34;15.20;88.30
69328;DHT22;56472;52.114;5.492;2023-04-01T15:56:08;15.10;87.50
69328;DHT22;56472;52.114;5.492;2023-04-01T16:23:51;14.80;86.90
69328;DHT22;56472;52.114;5.492;2023-04-01T16:26:52;14.80;86.90
69328;DHT22;56472;52.114;5.492;2023-04-01T16:32:12;14.80;86.80
69328;DHT22;56472;52.114;5.492;2023-04-01T16:35:14;14.70;86.40
69328;DHT22;56472;52.114;5.492;2023-04-01T16:37:50;14.70;86.50
69328;DHT22;56472;52.114;5.492;2023-04-01T16:40:50;14.60;86.50
69328;DHT22;56472;52.114;5.492;2023-04-01T16:56:56;14.40;86.20
69328;DHT22;56472;52.114;5.492;2023-04-01T16:59:44;14.30;86.00
69328;DHT22;56472;52.114;5.492;2023-04-01T17:02:14;14.30;85.70
69328;DHT22;56472;52.114;5.492;2023-04-01T17:07:40;14.20;86.10
69328;DHT22;56472;52.114;5.492;2023-04-01T17:13:18;14.10;85.90
69328;DHT22;56472;52.114;5.492;2023-04-01T17:21:10;14.00;85.70
69328;DHT22;56472;52.114;5.492;2023-04-01T17:29:59;14.00;85.70
69328;DHT22;56472;52.114;5.492;2023-04-01T17:41:16;13.80;85.60
69328;DHT22;56472;52.114;5.492;2023-04-01T17:49:22;13.60;86.00
69328;DHT22;56472;52.114;5.492;2023-04-01T17:57:43;13.50;85.80
69328;DHT22;56472;52.114;5.492;2023-04-01T18:00:47;13.50;85.90
69328;DHT22;56472;52.114;5.492;2023-04-01T18:06:01;13.40;86.10
69328;DHT22;56472;52.114;5.492;2023-04-01T18:14:13;13.40;86.20
69328;DHT22;56472;52.114;5.492;2023-04-01T18:17:25;13.40;86.10
69328;DHT22;56472;52.114;5.492;2023-04-01T18:23:19;13.40;86.10
69328;DHT22;56472;52.114;5.492;2023-04-01T18:25:52;13.30;85.90
69328;DHT22;56472;52.114;5.492;2023-04-01T18:28:49;13.30;86.00
69328;DHT22;56472;52.114;5.492;2023-04-01T18:31:22;13.30;86.00
69328;DHT22;56472;52.114;5.492;2023-04-01T18:39:36;13.20;86.00
69328;DHT22;56472;52.114;5.492;2023-04-01T18:53:39;13.20;86.10
69328;DHT22;56472;52.114;5.492;2023-04-01T18:56:14;13.20;85.90
69328;DHT22;56472;52.114;5.492;2023-04-01T18:59:38;13.20;86.00
69328;DHT22;56472;52.114;5.492;2023-04-01T19:04:39;13.10;85.90
69328;DHT22;56472;52.114;5.492;2023-04-01T19:07:45;13.10;85.80
69328;DHT22;56472;52.114;5.492;2023-04-01T19:13:05;13.00;85.70
69328;DHT22;56472;52.114;5.492;2023-04-01T19:41:00;12.80;85.40
69328;DHT22;56472;52.114;5.492;2023-04-01T19:46:29;12.70;85.40
69328;DHT22;56472;52.114;5.492;2023-04-01T19:52:05;12.70;85.20
69328;DHT22;56472;52.114;5.492;2023-04-01T20:00:29;12.60;85.30
69328;DHT22;56472;52.114;5.492;2023-04-01T20:03:03;12.50;85.20
69328;DHT22;56472;52.114;5.492;2023-04-01T20:08:25;12.50;85.50
69328;DHT22;56472;52.114;5.492;2023-04-01T20:19:40;12.50;85.40
69328;DHT22;56472;52.114;5.492;2023-04-01T20:22:31;12.40;85.40
69328;DHT22;56472;52.114;5.492;2023-04-01T20:25:26;12.40;85.50
69328;DHT22;56472;52.114;5.492;2023-04-01T20:30:53;12.30;85.30
69328;DHT22;56472;52.114;5.492;2023-04-01T20:39:20;12.30;85.50
69328;DHT22;56472;52.114;5.492;2023-04-01T20:45:09;12.20;85.50
69328;DHT22;56472;52.114;5.492;2023-04-01T20:53:20;12.10;84.90
69328;DHT22;56472;52.114;5.492;2023-04-01T21:07:16;12.00;84.60
69328;DHT22;56472;52.114;5.492;2023-04-01T21:29:27;11.90;84.70
69328;DHT22;56472;52.114;5.492;2023-04-01T21:35:42;11.90;84.80
69328;DHT22;56472;52.114;5.492;2023-04-01T21:49:30;11.70;84.40
69328;DHT22;56472;52.114;5.492;2023-04-01T21:58:25;11.60;84.20
69328;DHT22;56472;52.114;5.492;2023-04-01T22:07:06;11.50;84.10
69328;DHT22;56472;52.114;5.492;2023-04-01T22:09:52;11.50;84.10
69328;DHT22;56472;52.114;5.492;2023-04-01T22:17:50;11.40;83.90
69328;DHT22;56472;52.114;5.492;2023-04-01T22:20:27;11.40;83.80
69328;DHT22;56472;52.114;5.492;2023-04-01T22:28:32;11.30;83.80
69328;DHT22;56472;52.114;5.492;2023-04-01T22:31:04;11.30;83.80
69328;DHT22;56472;52.114;5.492;2023-04-01T22:36:13;11.20;83.80
69328;DHT22;56472;52.114;5.492;2023-04-01T22:50:26;11.10;83.70
69328;DHT22;56472;52.114;5.492;2023-04-01T22:53:13;11.10;83.70
69328;DHT22;56472;52.114;5.492;2023-04-01T22:55:44;11.10;83.50
69328;DHT22;56472;52.114;5.492;2023-04-01T22:58:30;11.10;83.70
69328;DHT22;56472;52.114;5.492;2023-04-01T23:01:06;11.10;83.80
69328;DHT22;56472;52.114;5.492;2023-04-01T23:03:46;11.10;83.90
69328;DHT22;56472;52.114;5.492;2023-04-01T23:06:27;11.10;83.80
69328;DHT22;56472;52.114;5.492;2023-04-01T23:09:07;11.00;83.80
69328;DHT22;56472;52.114;5.492;2023-04-01T23:11:57;11.00;83.90
69328;DHT22;56472;52.114;5.492;2023-04-01T23:14:33;11.10;83.80
69328;DHT22;56472;52.114;5.492;2023-04-01T23:17:27;11.00;83.70
69328;DHT22;56472;52.114;5.492;2023-04-01T23:22:29;11.00;83.70
69328;DHT22;56472;52.114;5.492;2023-04-01T23:33:30;10.90;83.70
69328;DHT22;56472;52.114;5.492;2023-04-01T23:36:00;10.90;83.70
69328;DHT22;56472;52.114;5.492;2023-04-01T23:38:39;10.90;83.60
69328;DHT22;56472;52.114;5.492;2023-04-01T23:41:26;10.90;83.70
69328;DHT22;56472;52.114;5.492;2023-04-01T23:44:03;10.80;83.40
69328;DHT22;56472;52.114;5.492;2023-04-01T23:46:33;10.80;83.40
69328;DHT22;56472;52.114;5.492;2023-04-01T23:49:02;10.80;83.30
69328;DHT22;56472;52.114;5.492;2023-04-01T23:51:39;10.80;83.40
69328;DHT22;56472;52.114;5.492;2023-04-01T23:54:34;10.80;83.30
69328;DHT22;56472;52.114;5.492;2023-04-01T23:57:12;10.80;83.60
69328;DHT22;56472;52.114;5.492;2023-04-01T23:59:40;10.70;83.50
